sensor_id;sensor_type;location;lat;lon;timestamp;P1;durP1;ratioP1;P2;durP2;ratioP2
42704;SDS011;28342;42.594;23.414;2023-04-03T00:00:40;8.73;;;5.18;;
42704;SDS011;28342;42.594;23.414;2023-04-03T00:03:06;7.85;;;4.22;;
42704;SDS011;28342;42.594;23.414;2023-04-03T00:05:32;7.30;;;3.47;;
42704;SDS011;28342;42.594;23.414;2023-04-03T00:07:57;8.93;;;4.60;;
42704;SDS011;28342;42.594;23.414;2023-04-03T00:10:23;8.07;;;4.53;;
42704;SDS011;28342;42.594;23.414;2023-04-03T00:12:48;9.43;;;5.45;;
42704;SDS011;28342;42.594;23.414;2023-04-03T00:15:14;11.90;;;3.67;;
42704;SDS011;28342;42.594;23.414;2023-04-03T00:17:40;8.32;;;3.67;;
42704;SDS011;28342;42.594;23.414;2023-04-03T00:20:06;4.53;;;2.53;;
42704;SDS011;28342;42.594;23.414;2023-04-03T00:22:32;5.60;;;3.13;;
42704;SDS011;28342;42.594;23.414;2023-04-03T00:24:57;4.15;;;2.85;;
42704;SDS011;28342;42.594;23.414;2023-04-03T00:27:22;5.43;;;2.53;;
42704;SDS011;28342;42.594;23.414;2023-04-03T00:29:48;4.45;;;2.67;;
42704;SDS011;28342;42.594;23.414;2023-04-03T00:32:13;4.45;;;2.50;;
42704;SDS011;28342;42.594;23.414;2023-04-03T00:34:39;8.10;;;3.10;;
42704;SDS011;28342;42.594;23.414;2023-04-03T00:37:04;6.40;;;2.90;;
42704;SDS011;28342;42.594;23.414;2023-04-03T00:39:30;5.32;;;2.78;;
42704;SDS011;28342;42.594;23.414;2023-04-03T00:41:55;3.47;;;2.47;;
42704;SDS011;28342;42.594;23.414;2023-04-03T00:44:21;3.35;;;2.42;;
42704;SDS011;28342;42.594;23.414;2023-04-03T00:46:53;3.67;;;2.10;;
42704;SDS011;28342;42.594;23.414;2023-04-03T00:49:18;4.65;;;2.67;;
42704;SDS011;28342;42.594;23.414;2023-04-03T00:51:44;4.82;;;2.53;;
42704;SDS011;28342;42.594;23.414;2023-04-03T00:54:10;4.82;;;2.20;;
42704;SDS011;28342;42.594;23.414;2023-04-03T00:56:36;5.88;;;2.85;;
42704;SDS011;28342;42.594;23.414;2023-04-03T00:59:06;6.38;;;2.63;;
42704;SDS011;28342;42.594;23.414;2023-04-03T01:01:35;4.93;;;2.53;;
42704;SDS011;28342;42.594;23.414;2023-04-03T01:04:02;4.55;;;2.40;;
42704;SDS011;28342;42.594;23.414;2023-04-03T01:06:32;4.40;;;2.50;;
42704;SDS011;28342;42.594;23.414;2023-04-03T01:09:00;5.20;;;2.35;;
42704;SDS011;28342;42.594;23.414;2023-04-03T01:11:26;3.83;;;2.35;;
42704;SDS011;28342;42.594;23.414;2023-04-03T01:13:52;5.13;;;3.17;;
42704;SDS011;28342;42.594;23.414;2023-04-03T01:16:18;18.02;;;11.13;;
42704;SDS011;28342;42.594;23.414;2023-04-03T01:18:44;7.45;;;5.55;;
42704;SDS011;28342;42.594;23.414;2023-04-03T01:21:21;7.22;;;4.63;;
42704;SDS011;28342;42.594;23.414;2023-04-03T01:26:38;10.85;;;6.25;;
42704;SDS011;28342;42.594;23.414;2023-04-03T01:29:04;8.88;;;4.68;;
42704;SDS011;28342;42.594;23.414;2023-04-03T01:31:47;6.45;;;3.53;;
42704;SDS011;28342;42.594;23.414;2023-04-03T01:34:14;7.65;;;4.88;;
42704;SDS011;28342;42.594;23.414;2023-04-03T01:36:40;12.13;;;6.35;;
42704;SDS011;28342;42.594;23.414;2023-04-03T01:39:06;10.48;;;6.53;;
42704;SDS011;28342;42.594;23.414;2023-04-03T01:41:32;8.38;;;6.63;;
42704;SDS011;28342;42.594;23.414;2023-04-03T01:43:57;9.40;;;4.93;;
42704;SDS011;28342;42.594;23.414;2023-04-03T01:46:23;5.25;;;3.65;;
42704;SDS011;28342;42.594;23.414;2023-04-03T01:48:48;7.82;;;3.75;;
42704;SDS011;28342;42.594;23.414;2023-04-03T01:51:14;5.00;;;3.60;;
42704;SDS011;28342;42.594;23.414;2023-04-03T01:53:39;8.05;;;4.38;;
42704;SDS011;28342;42.594;23.414;2023-04-03T01:56:05;8.35;;;5.43;;
42704;SDS011;28342;42.594;23.414;2023-04-03T01:58:31;9.13;;;6.18;;
42704;SDS011;28342;42.594;23.414;2023-04-03T02:00:56;4.70;;;2.90;;
42704;SDS011;28342;42.594;23.414;2023-04-03T02:03:22;4.60;;;2.63;;
42704;SDS011;28342;42.594;23.414;2023-04-03T02:05:50;5.35;;;3.10;;
42704;SDS011;28342;42.594;23.414;2023-04-03T02:08:16;2.75;;;2.40;;
42704;SDS011;28342;42.594;23.414;2023-04-03T02:10:43;5.45;;;2.38;;
42704;SDS011;28342;42.594;23.414;2023-04-03T02:13:12;4.45;;;2.75;;
42704;SDS011;28342;42.594;23.414;2023-04-03T02:15:38;3.63;;;2.40;;
42704;SDS011;28342;42.594;23.414;2023-04-03T02:18:04;4.25;;;2.50;;
42704;SDS011;28342;42.594;23.414;2023-04-03T02:20:30;5.80;;;2.65;;
42704;SDS011;28342;42.594;23.414;2023-04-03T02:22:55;5.00;;;3.28;;
42704;SDS011;28342;42.594;23.414;2023-04-03T02:25:21;5.07;;;3.10;;
42704;SDS011;28342;42.594;23.414;2023-04-03T02:27:46;3.83;;;2.80;;
42704;SDS011;28342;42.594;23.414;2023-04-03T02:30:12;3.97;;;2.28;;
42704;SDS011;28342;42.594;23.414;2023-04-03T02:32:39;5.05;;;2.47;;
42704;SDS011;28342;42.594;23.414;2023-04-03T02:35:05;4.97;;;2.15;;
42704;SDS011;28342;42.594;23.414;2023-04-03T02:37:31;3.15;;;2.00;;
42704;SDS011;28342;42.594;23.414;2023-04-03T02:39:57;3.78;;;2.05;;
42704;SDS011;28342;42.594;23.414;2023-04-03T02:42:22;3.63;;;2.47;;
42704;SDS011;28342;42.594;23.414;2023-04-03T02:44:48;4.10;;;2.85;;
42704;SDS011;28342;42.594;23.414;2023-04-03T02:47:13;4.82;;;2.88;;
42704;SDS011;28342;42.594;23.414;2023-04-03T02:49:39;12.45;;;5.65;;
42704;SDS011;28342;42.594;23.414;2023-04-03T02:52:04;9.57;;;4.90;;
42704;SDS011;28342;42.594;23.414;2023-04-03T02:54:29;16.17;;;5.97;;
42704;SDS011;28342;42.594;23.414;2023-04-03T02:56:56;9.32;;;5.13;;
42704;SDS011;28342;42.594;23.414;2023-04-03T02:59:22;6.63;;;3.80;;
42704;SDS011;28342;42.594;23.414;2023-04-03T03:01:48;4.55;;;2.35;;
42704;SDS011;28342;42.594;23.414;2023-04-03T03:04:13;4.78;;;2.85;;
42704;SDS011;28342;42.594;23.414;2023-04-03T03:06:39;5.13;;;2.67;;
42704;SDS011;28342;42.594;23.414;2023-04-03T03:09:05;3.13;;;2.33;;
42704;SDS011;28342;42.594;23.414;2023-04-03T03:11:31;5.55;;;2.78;;
42704;SDS011;28342;42.594;23.414;2023-04-03T03:13:56;3.47;;;2.17;;
42704;SDS011;28342;42.594;23.414;2023-04-03T03:16:22;3.72;;;2.40;;
42704;SDS011;28342;42.594;23.414;2023-04-03T03:18:47;3.78;;;2.50;;
42704;SDS011;28342;42.594;23.414;2023-04-03T03:21:13;4.65;;;2.65;;
42704;SDS011;28342;42.594;23.414;2023-04-03T03:23:39;5.38;;;2.50;;
42704;SDS011;28342;42.594;23.414;2023-04-03T03:26:06;5.00;;;2.90;;
42704;SDS011;28342;42.594;23.414;2023-04-03T03:28:33;3.60;;;2.40;;
42704;SDS011;28342;42.594;23.414;2023-04-03T03:31:01;11.48;;;5.47;;
42704;SDS011;28342;42.594;23.414;2023-04-03T03:33:27;40.58;;;18.13;;
42704;SDS011;28342;42.594;23.414;2023-04-03T03:35:53;34.92;;;16.55;;
42704;SDS011;28342;42.594;23.414;2023-04-03T03:38:18;8.52;;;3.58;;
42704;SDS011;28342;42.594;23.414;2023-04-03T03:40:44;5.13;;;3.63;;
42704;SDS011;28342;42.594;23.414;2023-04-03T03:43:11;6.13;;;4.00;;
42704;SDS011;28342;42.594;23.414;2023-04-03T03:45:37;4.13;;;3.03;;
42704;SDS011;28342;42.594;23.414;2023-04-03T03:48:02;5.60;;;3.08;;
42704;SDS011;28342;42.594;23.414;2023-04-03T03:50:28;62.70;;;32.83;;
42704;SDS011;28342;42.594;23.414;2023-04-03T03:52:53;24.08;;;12.15;;
42704;SDS011;28342;42.594;23.414;2023-04-03T03:55:19;18.35;;;10.75;;
42704;SDS011;28342;42.594;23.414;2023-04-03T03:57:44;55.33;;;32.17;;
42704;SDS011;28342;42.594;23.414;2023-04-03T04:00:10;20.75;;;14.05;;
42704;SDS011;28342;42.594;23.414;2023-04-03T04:02:38;7.05;;;4.47;;
42704;SDS011;28342;42.594;23.414;2023-04-03T04:05:03;8.32;;;4.43;;
42704;SDS011;28342;42.594;23.414;2023-04-03T04:07:29;7.30;;;3.40;;
42704;SDS011;28342;42.594;23.414;2023-04-03T04:09:55;4.30;;;2.90;;
42704;SDS011;28342;42.594;23.414;2023-04-03T04:12:20;4.95;;;3.10;;
42704;SDS011;28342;42.594;23.414;2023-04-03T04:14:46;4.45;;;2.80;;
42704;SDS011;28342;42.594;23.414;2023-04-03T04:17:15;7.25;;;2.92;;
42704;SDS011;28342;42.594;23.414;2023-04-03T04:19:40;28.20;;;11.73;;
42704;SDS011;28342;42.594;23.414;2023-04-03T04:22:06;38.40;;;16.50;;
42704;SDS011;28342;42.594;23.414;2023-04-03T04:24:31;24.42;;;14.77;;
42704;SDS011;28342;42.594;23.414;2023-04-03T04:26:57;13.20;;;3.55;;
42704;SDS011;28342;42.594;23.414;2023-04-03T04:29:22;7.25;;;3.88;;
42704;SDS011;28342;42.594;23.414;2023-04-03T04:31:48;6.68;;;3.75;;
42704;SDS011;28342;42.594;23.414;2023-04-03T04:34:13;8.80;;;2.40;;
42704;SDS011;28342;42.594;23.414;2023-04-03T04:36:39;4.18;;;2.80;;
42704;SDS011;28342;42.594;23.414;2023-04-03T04:39:04;9.68;;;3.20;;
42704;SDS011;28342;42.594;23.414;2023-04-03T04:41:31;4.70;;;3.40;;
42704;SDS011;28342;42.594;23.414;2023-04-03T04:43:57;6.80;;;3.33;;
42704;SDS011;28342;42.594;23.414;2023-04-03T04:46:22;7.15;;;3.97;;
42704;SDS011;28342;42.594;23.414;2023-04-03T04:48:48;11.32;;;3.97;;
42704;SDS011;28342;42.594;23.414;2023-04-03T04:51:13;4.35;;;2.65;;
42704;SDS011;28342;42.594;23.414;2023-04-03T04:53:39;6.53;;;2.97;;
42704;SDS011;28342;42.594;23.414;2023-04-03T04:56:05;5.22;;;2.90;;
42704;SDS011;28342;42.594;23.414;2023-04-03T04:58:31;7.05;;;2.85;;
42704;SDS011;28342;42.594;23.414;2023-04-03T05:01:00;5.57;;;2.80;;
42704;SDS011;28342;42.594;23.414;2023-04-03T05:03:25;6.32;;;3.00;;
42704;SDS011;28342;42.594;23.414;2023-04-03T05:05:50;4.78;;;2.53;;
42704;SDS011;28342;42.594;23.414;2023-04-03T05:08:16;4.18;;;2.38;;
42704;SDS011;28342;42.594;23.414;2023-04-03T05:10:41;3.92;;;2.67;;
42704;SDS011;28342;42.594;23.414;2023-04-03T05:13:07;4.85;;;2.88;;
42704;SDS011;28342;42.594;23.414;2023-04-03T05:15:33;5.32;;;2.55;;
42704;SDS011;28342;42.594;23.414;2023-04-03T05:17:58;6.97;;;2.65;;
42704;SDS011;28342;42.594;23.414;2023-04-03T05:20:24;4.25;;;3.47;;
42704;SDS011;28342;42.594;23.414;2023-04-03T05:22:50;9.65;;;2.97;;
42704;SDS011;28342;42.594;23.414;2023-04-03T05:25:15;5.65;;;2.50;;
42704;SDS011;28342;42.594;23.414;2023-04-03T05:27:41;7.28;;;2.70;;
42704;SDS011;28342;42.594;23.414;2023-04-03T05:30:06;6.00;;;2.78;;
42704;SDS011;28342;42.594;23.414;2023-04-03T05:32:32;5.50;;;2.40;;
42704;SDS011;28342;42.594;23.414;2023-04-03T05:34:58;5.30;;;2.67;;
42704;SDS011;28342;42.594;23.414;2023-04-03T05:37:23;7.32;;;4.78;;
42704;SDS011;28342;42.594;23.414;2023-04-03T05:39:49;7.10;;;4.50;;
42704;SDS011;28342;42.594;23.414;2023-04-03T05:42:14;6.03;;;4.82;;
42704;SDS011;28342;42.594;23.414;2023-04-03T05:44:40;7.43;;;3.05;;
42704;SDS011;28342;42.594;23.414;2023-04-03T05:47:06;4.70;;;2.70;;
42704;SDS011;28342;42.594;23.414;2023-04-03T05:49:32;5.65;;;3.83;;
42704;SDS011;28342;42.594;23.414;2023-04-03T05:51:57;6.47;;;3.83;;
42704;SDS011;28342;42.594;23.414;2023-04-03T05:54:26;6.78;;;3.97;;
42704;SDS011;28342;42.594;23.414;2023-04-03T05:56:53;7.32;;;3.30;;
42704;SDS011;28342;42.594;23.414;2023-04-03T05:59:19;5.35;;;3.70;;
42704;SDS011;28342;42.594;23.414;2023-04-03T06:01:46;8.60;;;3.50;;
42704;SDS011;28342;42.594;23.414;2023-04-03T06:04:14;6.18;;;3.35;;
42704;SDS011;28342;42.594;23.414;2023-04-03T06:06:43;7.28;;;4.20;;
42704;SDS011;28342;42.594;23.414;2023-04-03T06:09:10;6.50;;;3.33;;
42704;SDS011;28342;42.594;23.414;2023-04-03T06:11:36;5.43;;;3.65;;
42704;SDS011;28342;42.594;23.414;2023-04-03T06:14:02;6.97;;;3.03;;
42704;SDS011;28342;42.594;23.414;2023-04-03T06:16:28;4.88;;;3.75;;
42704;SDS011;28342;42.594;23.414;2023-04-03T06:18:53;4.32;;;3.75;;
42704;SDS011;28342;42.594;23.414;2023-04-03T06:21:19;10.40;;;3.00;;
42704;SDS011;28342;42.594;23.414;2023-04-03T06:23:44;7.75;;;4.25;;
42704;SDS011;28342;42.594;23.414;2023-04-03T06:26:10;4.60;;;3.10;;
42704;SDS011;28342;42.594;23.414;2023-04-03T06:28:35;4.60;;;3.00;;
42704;SDS011;28342;42.594;23.414;2023-04-03T06:31:00;5.13;;;2.42;;
42704;SDS011;28342;42.594;23.414;2023-04-03T06:33:26;3.20;;;2.30;;
42704;SDS011;28342;42.594;23.414;2023-04-03T06:35:55;4.60;;;2.30;;
42704;SDS011;28342;42.594;23.414;2023-04-03T06:38:24;5.35;;;2.47;;
42704;SDS011;28342;42.594;23.414;2023-04-03T06:40:49;4.47;;;2.53;;
42704;SDS011;28342;42.594;23.414;2023-04-03T06:43:16;3.28;;;2.15;;
42704;SDS011;28342;42.594;23.414;2023-04-03T06:45:42;5.10;;;2.28;;
42704;SDS011;28342;42.594;23.414;2023-04-03T06:48:07;4.53;;;2.47;;
42704;SDS011;28342;42.594;23.414;2023-04-03T06:50:35;7.95;;;2.63;;
42704;SDS011;28342;42.594;23.414;2023-04-03T06:53:00;5.13;;;2.40;;
42704;SDS011;28342;42.594;23.414;2023-04-03T06:55:26;3.70;;;2.30;;
42704;SDS011;28342;42.594;23.414;2023-04-03T06:57:51;7.05;;;3.50;;
42704;SDS011;28342;42.594;23.414;2023-04-03T07:00:17;4.88;;;3.00;;
42704;SDS011;28342;42.594;23.414;2023-04-03T07:02:43;7.00;;;3.00;;
42704;SDS011;28342;42.594;23.414;2023-04-03T07:05:08;4.80;;;2.75;;
42704;SDS011;28342;42.594;23.414;2023-04-03T07:07:34;4.43;;;2.53;;
42704;SDS011;28342;42.594;23.414;2023-04-03T07:10:02;4.63;;;2.85;;
42704;SDS011;28342;42.594;23.414;2023-04-03T07:12:27;5.78;;;2.70;;
42704;SDS011;28342;42.594;23.414;2023-04-03T07:14:53;3.40;;;2.35;;
42704;SDS011;28342;42.594;23.414;2023-04-03T07:17:18;4.85;;;2.60;;
42704;SDS011;28342;42.594;23.414;2023-04-03T07:19:44;5.80;;;2.47;;
42704;SDS011;28342;42.594;23.414;2023-04-03T07:22:09;4.30;;;2.17;;
42704;SDS011;28342;42.594;23.414;2023-04-03T07:24:36;6.88;;;2.30;;
42704;SDS011;28342;42.594;23.414;2023-04-03T07:27:01;7.70;;;3.50;;
42704;SDS011;28342;42.594;23.414;2023-04-03T07:29:27;4.97;;;2.50;;
42704;SDS011;28342;42.594;23.414;2023-04-03T07:31:53;4.22;;;2.63;;
42704;SDS011;28342;42.594;23.414;2023-04-03T07:34:20;5.18;;;2.10;;
42704;SDS011;28342;42.594;23.414;2023-04-03T07:36:45;3.33;;;1.80;;
42704;SDS011;28342;42.594;23.414;2023-04-03T07:39:11;5.00;;;2.30;;
42704;SDS011;28342;42.594;23.414;2023-04-03T07:41:37;2.90;;;1.45;;
42704;SDS011;28342;42.594;23.414;2023-04-03T07:44:02;3.58;;;1.50;;
42704;SDS011;28342;42.594;23.414;2023-04-03T07:46:29;7.10;;;2.13;;
42704;SDS011;28342;42.594;23.414;2023-04-03T07:48:55;4.53;;;2.45;;
42704;SDS011;28342;42.594;23.414;2023-04-03T07:51:20;3.53;;;2.10;;
42704;SDS011;28342;42.594;23.414;2023-04-03T07:53:46;5.60;;;2.47;;
42704;SDS011;28342;42.594;23.414;2023-04-03T07:56:11;11.20;;;5.38;;
42704;SDS011;28342;42.594;23.414;2023-04-03T07:58:36;21.77;;;5.55;;
42704;SDS011;28342;42.594;23.414;2023-04-03T08:01:02;12.23;;;5.82;;
42704;SDS011;28342;42.594;23.414;2023-04-03T08:03:28;15.02;;;5.47;;
42704;SDS011;28342;42.594;23.414;2023-04-03T08:05:53;12.02;;;5.05;;
42704;SDS011;28342;42.594;23.414;2023-04-03T08:08:21;10.60;;;5.95;;
42704;SDS011;28342;42.594;23.414;2023-04-03T08:10:48;10.70;;;6.10;;
42704;SDS011;28342;42.594;23.414;2023-04-03T08:13:17;13.68;;;6.07;;
42704;SDS011;28342;42.594;23.414;2023-04-03T08:15:44;18.40;;;6.13;;
42704;SDS011;28342;42.594;23.414;2023-04-03T08:18:09;17.20;;;7.35;;
42704;SDS011;28342;42.594;23.414;2023-04-03T08:20:35;21.20;;;6.68;;
42704;SDS011;28342;42.594;23.414;2023-04-03T08:23:04;15.80;;;7.55;;
42704;SDS011;28342;42.594;23.414;2023-04-03T08:25:30;17.42;;;7.93;;
42704;SDS011;28342;42.594;23.414;2023-04-03T08:27:56;19.13;;;8.30;;
42704;SDS011;28342;42.594;23.414;2023-04-03T08:30:22;12.18;;;7.00;;
42704;SDS011;28342;42.594;23.414;2023-04-03T08:32:47;22.77;;;8.10;;
42704;SDS011;28342;42.594;23.414;2023-04-03T08:35:13;16.23;;;8.75;;
42704;SDS011;28342;42.594;23.414;2023-04-03T08:37:39;19.15;;;8.77;;
42704;SDS011;28342;42.594;23.414;2023-04-03T08:40:05;16.42;;;9.52;;
42704;SDS011;28342;42.594;23.414;2023-04-03T08:44:59;20.50;;;8.70;;
42704;SDS011;28342;42.594;23.414;2023-04-03T08:47:38;14.80;;;8.18;;
42704;SDS011;28342;42.594;23.414;2023-04-03T08:50:25;13.77;;;8.07;;
42704;SDS011;28342;42.594;23.414;2023-04-03T08:52:55;19.02;;;8.15;;
42704;SDS011;28342;42.594;23.414;2023-04-03T08:58:03;16.75;;;6.80;;
42704;SDS011;28342;42.594;23.414;2023-04-03T09:00:50;13.63;;;7.30;;
42704;SDS011;28342;42.594;23.414;2023-04-03T09:03:22;17.50;;;7.88;;
42704;SDS011;28342;42.594;23.414;2023-04-03T09:05:53;14.50;;;8.70;;
42704;SDS011;28342;42.594;23.414;2023-04-03T09:08:27;15.98;;;7.70;;
42704;SDS011;28342;42.594;23.414;2023-04-03T09:11:06;15.05;;;8.02;;
42704;SDS011;28342;42.594;23.414;2023-04-03T09:19:13;23.80;;;7.70;;
42704;SDS011;28342;42.594;23.414;2023-04-03T09:21:46;15.43;;;7.65;;
42704;SDS011;28342;42.594;23.414;2023-04-03T09:24:15;16.02;;;7.63;;
42704;SDS011;28342;42.594;23.414;2023-04-03T09:26:44;16.88;;;8.18;;
42704;SDS011;28342;42.594;23.414;2023-04-03T09:29:20;13.75;;;5.97;;
42704;SDS011;28342;42.594;23.414;2023-04-03T09:34:35;12.88;;;4.82;;
42704;SDS011;28342;42.594;23.414;2023-04-03T09:37:02;10.45;;;4.95;;
42704;SDS011;28342;42.594;23.414;2023-04-03T09:39:48;15.60;;;5.93;;
42704;SDS011;28342;42.594;23.414;2023-04-03T09:42:17;6.43;;;4.35;;
42704;SDS011;28342;42.594;23.414;2023-04-03T09:44:53;6.97;;;3.92;;
42704;SDS011;28342;42.594;23.414;2023-04-03T09:47:24;6.97;;;3.80;;
42704;SDS011;28342;42.594;23.414;2023-04-03T09:52:54;7.05;;;4.13;;
42704;SDS011;28342;42.594;23.414;2023-04-03T09:55:20;9.23;;;6.30;;
42704;SDS011;28342;42.594;23.414;2023-04-03T09:58:04;19.35;;;10.90;;
42704;SDS011;28342;42.594;23.414;2023-04-03T10:00:53;14.77;;;6.78;;
42704;SDS011;28342;42.594;23.414;2023-04-03T10:03:23;22.30;;;8.60;;
42704;SDS011;28342;42.594;23.414;2023-04-03T10:05:54;18.52;;;8.35;;
42704;SDS011;28342;42.594;23.414;2023-04-03T10:08:22;14.18;;;6.95;;
42704;SDS011;28342;42.594;23.414;2023-04-03T10:11:04;12.10;;;6.53;;
42704;SDS011;28342;42.594;23.414;2023-04-03T10:13:34;10.55;;;4.90;;
42704;SDS011;28342;42.594;23.414;2023-04-03T10:24:28;6.82;;;3.90;;
42704;SDS011;28342;42.594;23.414;2023-04-03T10:29:39;13.05;;;5.03;;
42704;SDS011;28342;42.594;23.414;2023-04-03T10:35:02;4.93;;;3.67;;
42704;SDS011;28342;42.594;23.414;2023-04-03T10:37:59;6.63;;;4.13;;
42704;SDS011;28342;42.594;23.414;2023-04-03T10:40:52;11.88;;;5.63;;
42704;SDS011;28342;42.594;23.414;2023-04-03T10:43:32;7.90;;;3.63;;
42704;SDS011;28342;42.594;23.414;2023-04-03T10:48:39;10.75;;;6.00;;
42704;SDS011;28342;42.594;23.414;2023-04-03T10:51:16;6.78;;;4.07;;
42704;SDS011;28342;42.594;23.414;2023-04-03T10:54:16;8.63;;;3.70;;
42704;SDS011;28342;42.594;23.414;2023-04-03T10:56:56;7.35;;;4.47;;
42704;SDS011;28342;42.594;23.414;2023-04-03T10:59:38;11.85;;;6.05;;
42704;SDS011;28342;42.594;23.414;2023-04-03T11:04:44;3.85;;;3.03;;
42704;SDS011;28342;42.594;23.414;2023-04-03T11:07:16;3.05;;;2.30;;
42704;SDS011;28342;42.594;23.414;2023-04-03T11:09:44;6.13;;;2.08;;
42704;SDS011;28342;42.594;23.414;2023-04-03T11:12:32;3.95;;;2.42;;
42704;SDS011;28342;42.594;23.414;2023-04-03T11:15:03;2.80;;;2.05;;
42704;SDS011;28342;42.594;23.414;2023-04-03T11:17:51;3.42;;;2.40;;
42704;SDS011;28342;42.594;23.414;2023-04-03T11:20:32;6.55;;;2.22;;
42704;SDS011;28342;42.594;23.414;2023-04-03T11:25:50;4.82;;;3.15;;
42704;SDS011;28342;42.594;23.414;2023-04-03T11:28:18;3.67;;;2.60;;
42704;SDS011;28342;42.594;23.414;2023-04-03T11:30:46;4.03;;;2.65;;
42704;SDS011;28342;42.594;23.414;2023-04-03T11:33:32;5.75;;;4.10;;
42704;SDS011;28342;42.594;23.414;2023-04-03T11:38:54;9.35;;;4.63;;
42704;SDS011;28342;42.594;23.414;2023-04-03T11:41:29;13.55;;;8.27;;
42704;SDS011;28342;42.594;23.414;2023-04-03T11:44:01;29.52;;;14.60;;
42704;SDS011;28342;42.594;23.414;2023-04-03T12:05:48;9.95;;;6.03;;
42704;SDS011;28342;42.594;23.414;2023-04-03T12:08:25;9.27;;;5.55;;
42704;SDS011;28342;42.594;23.414;2023-04-03T12:16:00;9.98;;;5.10;;
42704;SDS011;28342;42.594;23.414;2023-04-03T12:21:15;10.20;;;5.50;;
42704;SDS011;28342;42.594;23.414;2023-04-03T12:41:15;9.95;;;4.72;;
42704;SDS011;28342;42.594;23.414;2023-04-03T12:44:05;7.82;;;4.60;;
42704;SDS011;28342;42.594;23.414;2023-04-03T12:46:37;5.18;;;2.95;;
42704;SDS011;28342;42.594;23.414;2023-04-03T12:49:41;5.88;;;3.47;;
42704;SDS011;28342;42.594;23.414;2023-04-03T12:52:30;10.40;;;3.90;;
42704;SDS011;28342;42.594;23.414;2023-04-03T12:55:00;10.02;;;6.30;;
42704;SDS011;28342;42.594;23.414;2023-04-03T12:57:29;8.60;;;3.42;;
42704;SDS011;28342;42.594;23.414;2023-04-03T12:59:57;7.47;;;4.80;;
42704;SDS011;28342;42.594;23.414;2023-04-03T13:02:25;6.00;;;3.10;;
42704;SDS011;28342;42.594;23.414;2023-04-03T13:04:53;5.35;;;4.05;;
42704;SDS011;28342;42.594;23.414;2023-04-03T13:07:32;6.25;;;5.22;;
42704;SDS011;28342;42.594;23.414;2023-04-03T13:12:34;7.78;;;5.18;;
42704;SDS011;28342;42.594;23.414;2023-04-03T13:15:20;74.65;;;34.95;;
42704;SDS011;28342;42.594;23.414;2023-04-03T13:17:48;31.73;;;15.38;;
42704;SDS011;28342;42.594;23.414;2023-04-03T13:20:22;24.20;;;13.02;;
42704;SDS011;28342;42.594;23.414;2023-04-03T13:22:59;12.77;;;8.80;;
42704;SDS011;28342;42.594;23.414;2023-04-03T13:25:30;11.25;;;6.88;;
42704;SDS011;28342;42.594;23.414;2023-04-03T13:27:59;9.90;;;6.80;;
42704;SDS011;28342;42.594;23.414;2023-04-03T13:30:32;7.85;;;5.07;;
42704;SDS011;28342;42.594;23.414;2023-04-03T13:33:00;6.07;;;4.60;;
42704;SDS011;28342;42.594;23.414;2023-04-03T13:35:35;9.63;;;6.40;;
42704;SDS011;28342;42.594;23.414;2023-04-03T13:38:05;13.43;;;7.88;;
42704;SDS011;28342;42.594;23.414;2023-04-03T13:40:50;14.97;;;9.00;;
42704;SDS011;28342;42.594;23.414;2023-04-03T13:43:21;10.18;;;6.20;;
42704;SDS011;28342;42.594;23.414;2023-04-03T13:45:57;7.05;;;5.00;;
42704;SDS011;28342;42.594;23.414;2023-04-03T13:48:36;6.65;;;5.18;;
42704;SDS011;28342;42.594;23.414;2023-04-03T13:51:05;10.52;;;7.40;;
42704;SDS011;28342;42.594;23.414;2023-04-03T13:53:47;14.18;;;7.30;;
42704;SDS011;28342;42.594;23.414;2023-04-03T13:58:58;18.48;;;10.25;;
42704;SDS011;28342;42.594;23.414;2023-04-03T14:06:51;40.35;;;23.75;;
42704;SDS011;28342;42.594;23.414;2023-04-03T14:09:18;52.67;;;30.10;;
42704;SDS011;28342;42.594;23.414;2023-04-03T14:11:44;40.25;;;24.20;;
42704;SDS011;28342;42.594;23.414;2023-04-03T14:14:12;23.13;;;12.68;;
42704;SDS011;28342;42.594;23.414;2023-04-03T14:16:43;16.02;;;10.52;;
42704;SDS011;28342;42.594;23.414;2023-04-03T14:19:16;11.98;;;8.50;;
42704;SDS011;28342;42.594;23.414;2023-04-03T14:21:48;15.30;;;10.55;;
42704;SDS011;28342;42.594;23.414;2023-04-03T14:24:15;26.88;;;18.17;;
42704;SDS011;28342;42.594;23.414;2023-04-03T14:26:41;31.88;;;20.63;;
42704;SDS011;28342;42.594;23.414;2023-04-03T14:29:09;37.30;;;19.10;;
42704;SDS011;28342;42.594;23.414;2023-04-03T14:31:36;30.10;;;18.33;;
42704;SDS011;28342;42.594;23.414;2023-04-03T14:34:02;20.40;;;13.52;;
42704;SDS011;28342;42.594;23.414;2023-04-03T14:36:28;23.48;;;15.13;;
42704;SDS011;28342;42.594;23.414;2023-04-03T14:38:55;16.88;;;12.43;;
42704;SDS011;28342;42.594;23.414;2023-04-03T14:41:22;6.22;;;4.40;;
42704;SDS011;28342;42.594;23.414;2023-04-03T14:43:51;25.85;;;15.05;;
42704;SDS011;28342;42.594;23.414;2023-04-03T14:46:18;26.23;;;15.88;;
42704;SDS011;28342;42.594;23.414;2023-04-03T14:48:48;33.08;;;16.27;;
42704;SDS011;28342;42.594;23.414;2023-04-03T14:51:15;26.25;;;14.75;;
42704;SDS011;28342;42.594;23.414;2023-04-03T14:53:41;15.57;;;10.43;;
42704;SDS011;28342;42.594;23.414;2023-04-03T14:56:11;22.02;;;11.90;;
42704;SDS011;28342;42.594;23.414;2023-04-03T14:58:41;20.20;;;12.25;;
42704;SDS011;28342;42.594;23.414;2023-04-03T15:01:08;22.63;;;14.45;;
42704;SDS011;28342;42.594;23.414;2023-04-03T15:03:39;21.58;;;12.25;;
42704;SDS011;28342;42.594;23.414;2023-04-03T15:06:04;13.13;;;8.80;;
42704;SDS011;28342;42.594;23.414;2023-04-03T15:08:30;23.10;;;13.25;;
42704;SDS011;28342;42.594;23.414;2023-04-03T15:10:55;21.50;;;10.95;;
42704;SDS011;28342;42.594;23.414;2023-04-03T15:13:25;18.77;;;10.88;;
42704;SDS011;28342;42.594;23.414;2023-04-03T15:15:51;19.10;;;10.73;;
42704;SDS011;28342;42.594;23.414;2023-04-03T15:18:21;17.65;;;9.43;;
42704;SDS011;28342;42.594;23.414;2023-04-03T15:20:51;10.48;;;5.90;;
42704;SDS011;28342;42.594;23.414;2023-04-03T15:23:16;12.25;;;6.57;;
42704;SDS011;28342;42.594;23.414;2023-04-03T15:25:43;9.38;;;5.18;;
42704;SDS011;28342;42.594;23.414;2023-04-03T15:30:47;16.80;;;9.20;;
42704;SDS011;28342;42.594;23.414;2023-04-03T15:33:13;13.82;;;8.40;;
42704;SDS011;28342;42.594;23.414;2023-04-03T15:35:40;19.55;;;8.32;;
42704;SDS011;28342;42.594;23.414;2023-04-03T15:38:06;13.88;;;7.18;;
42704;SDS011;28342;42.594;23.414;2023-04-03T15:40:32;23.00;;;11.00;;
42704;SDS011;28342;42.594;23.414;2023-04-03T15:42:58;31.77;;;16.73;;
42704;SDS011;28342;42.594;23.414;2023-04-03T15:45:23;22.30;;;11.65;;
42704;SDS011;28342;42.594;23.414;2023-04-03T15:47:49;23.30;;;12.57;;
42704;SDS011;28342;42.594;23.414;2023-04-03T15:50:15;21.70;;;11.10;;
42704;SDS011;28342;42.594;23.414;2023-04-03T15:52:48;13.32;;;8.38;;
42704;SDS011;28342;42.594;23.414;2023-04-03T15:55:19;19.02;;;11.05;;
42704;SDS011;28342;42.594;23.414;2023-04-03T15:57:45;13.35;;;7.97;;
42704;SDS011;28342;42.594;23.414;2023-04-03T16:00:11;12.80;;;7.07;;
42704;SDS011;28342;42.594;23.414;2023-04-03T16:02:37;17.42;;;10.43;;
42704;SDS011;28342;42.594;23.414;2023-04-03T16:05:03;22.08;;;14.23;;
42704;SDS011;28342;42.594;23.414;2023-04-03T16:07:29;10.25;;;7.13;;
42704;SDS011;28342;42.594;23.414;2023-04-03T16:09:54;12.35;;;8.55;;
42704;SDS011;28342;42.594;23.414;2023-04-03T16:12:20;15.52;;;8.50;;
42704;SDS011;28342;42.594;23.414;2023-04-03T16:14:45;16.92;;;10.20;;
42704;SDS011;28342;42.594;23.414;2023-04-03T16:17:10;10.57;;;5.80;;